Time;durP1;ratioP1;P1;durP2;ratioP2;P2;SDS_P1;SDS_P2;PMS_P1;PMS_P2;Temp;Humidity;BMP_temperature;BMP_pressure;BME280_temperature;BME280_humidity;BME280_pressure;Samples;Min_cycle;Max_cycle;Signal;HPM_P1;HPM_P2
2021/12/09 00:00:58;;;;;;;;;;;;;;;3.37;95.22;99241.66;5041642;28;19933;-82
2021/12/09 00:03:24;;;;;;;;;;;;;;;3.43;95.63;99246.34;5016977;28;20522;-81
2021/12/09 00:05:49;;;;;;;;;;;;;;;3.42;96.16;99247.31;5020948;28;20183;-81
2021/12/09 00:08:14;;;;;;;;;;;;;;;3.47;95.66;99249.50;5026107;28;19921;-82
2021/12/09 00:10:40;;;;;;;;;;;;;;;3.48;95.18;99241.53;5019078;28;20364;-81
2021/12/09 00:13:05;;;;;;;;;;;;;;;3.63;93.51;99248.97;5016077;28;19936;-80
2021/12/09 00:15:31;;;;;;;;;;;;;;;3.56;94.43;99248.69;5021725;28;20325;-81
2021/12/09 00:17:57;;;;;;;;;;;;;;;3.56;94.29;99256.53;5017480;28;19921;-83
2021/12/09 00:20:22;;;;;;;;;;;;;;;3.53;94.46;99265.47;5013828;28;19921;-81
2021/12/09 00:22:47;;;;;;;;;;;;;;;3.64;93.53;99261.06;5038656;28;20242;-81
2021/12/09 00:25:14;;;;;;;;;;;;;;;3.60;94.34;99257.91;5021956;28;19921;-83
2021/12/09 00:27:39;;;;;;;;;;;;;;;3.64;94.22;99266.28;5023646;28;19926;-80
2021/12/09 00:30:05;;;;;;;;;;;;;;;3.63;94.42;99260.22;5029928;28;19922;-82
2021/12/09 00:32:30;;;;;;;;;;;;;;;3.64;94.29;99253.22;5013613;28;20003;-82
2021/12/09 00:34:56;;;;;;;;;;;;;;;3.63;94.06;99260.22;5020373;28;19921;-81
2021/12/09 00:37:28;;;;;;;;;;;;;;;3.64;94.00;99255.81;5023825;28;19953;-80
2021/12/09 00:39:53;;;;;;;;;;;;;;;3.63;94.12;99267.25;5018841;28;20172;-81
2021/12/09 00:42:20;;;;;;;;;;;;;;;3.64;93.96;99266.28;5018949;28;19921;-80
2021/12/09 00:44:46;;;;;;;;;;;;;;;3.63;94.08;99262.84;5021697;28;19925;-80
2021/12/09 00:47:11;;;;;;;;;;;;;;;3.61;93.94;99257.75;5014797;28;19975;-81
2021/12/09 00:49:37;;;;;;;;;;;;;;;3.61;94.11;99264.78;5021806;28;19928;-83
2021/12/09 00:52:02;;;;;;;;;;;;;;;3.57;93.94;99266.00;5014665;28;19921;-81
2021/12/09 00:54:28;;;;;;;;;;;;;;;3.48;94.29;99264.22;5022490;28;20067;-81
2021/12/09 00:56:53;;;;;;;;;;;;;;;3.43;94.10;99269.03;5017641;28;19965;-81
2021/12/09 00:59:18;;;;;;;;;;;;;;;3.36;94.23;99269.59;5022634;28;19921;-81
2021/12/09 01:01:44;;;;;;;;;;;;;;;3.36;94.21;99268.75;5037284;28;19926;-81
2021/12/09 01:04:09;;;;;;;;;;;;;;;3.36;94.34;99264.38;5024433;28;19921;-81
2021/12/09 01:06:34;;;;;;;;;;;;;;;3.38;93.63;99265.06;5024892;28;19925;-82
2021/12/09 01:08:59;;;;;;;;;;;;;;;3.38;93.25;99270.28;5013398;28;19921;-81
2021/12/09 01:11:25;;;;;;;;;;;;;;;3.34;93.67;99265.47;5023536;28;20289;-81
2021/12/09 01:13:50;;;;;;;;;;;;;;;3.28;93.91;99266.81;5021543;28;20281;-80
2021/12/09 01:16:15;;;;;;;;;;;;;;;3.27;94.35;99266.97;5023107;28;19917;-80
2021/12/09 01:18:41;;;;;;;;;;;;;;;3.26;93.96;99271.34;5020706;28;19922;-81
2021/12/09 01:21:07;;;;;;;;;;;;;;;3.23;94.07;99273.41;5039752;28;19917;-81
2021/12/09 01:23:33;;;;;;;;;;;;;;;3.23;93.63;99268.19;5038737;28;19921;-81
2021/12/09 01:26:03;;;;;;;;;;;;;;;3.22;93.86;99271.75;5029544;28;19960;-81
2021/12/09 01:28:32;;;;;;;;;;;;;;;3.17;94.58;99273.00;5026507;28;19922;-81
2021/12/09 01:31:03;;;;;;;;;;;;;;;3.13;94.29;99279.44;5037735;28;19924;-80
2021/12/09 01:33:29;;;;;;;;;;;;;;;3.09;94.20;99279.84;5021375;28;19976;-80
2021/12/09 01:35:54;;;;;;;;;;;;;;;3.05;94.50;99279.31;5027522;28;19917;-81
2021/12/09 01:38:22;;;;;;;;;;;;;;;3.07;93.75;99274.75;5024456;28;19926;-80
2021/12/09 01:40:47;;;;;;;;;;;;;;;2.96;94.46;99290.56;5022020;28;19985;-81
2021/12/09 01:43:13;;;;;;;;;;;;;;;2.91;94.26;99296.19;5024970;28;20003;-80
2021/12/09 01:45:38;;;;;;;;;;;;;;;2.93;93.88;99299.50;5034250;28;19917;-81
2021/12/09 01:48:03;;;;;;;;;;;;;;;2.93;93.94;99301.25;5028562;28;20390;-80
2021/12/09 01:50:29;;;;;;;;;;;;;;;2.87;93.78;99307.84;5032902;28;19994;-81
2021/12/09 01:52:54;;;;;;;;;;;;;;;2.87;94.25;99309.63;5031605;28;19925;-80
2021/12/09 01:55:20;;;;;;;;;;;;;;;2.92;93.96;99316.09;5031291;28;19928;-81
2021/12/09 01:57:47;;;;;;;;;;;;;;;2.96;93.56;99317.50;5022747;28;19918;-80
2021/12/09 02:00:14;;;;;;;;;;;;;;;3.03;93.41;99317.78;5024761;28;19960;-82
2021/12/09 02:02:41;;;;;;;;;;;;;;;3.03;93.87;99302.13;5018140;28;20331;-80
2021/12/09 02:05:07;;;;;;;;;;;;;;;3.03;95.18;99306.50;5012535;28;20303;-81
2021/12/09 02:07:32;;;;;;;;;;;;;;;3.05;95.61;99302.81;5023449;28;19925;-80
2021/12/09 02:09:57;;;;;;;;;;;;;;;3.07;95.68;99295.66;5029575;28;19991;-80
2021/12/09 02:12:22;;;;;;;;;;;;;;;3.04;95.40;99301.16;5021828;28;20189;-80
2021/12/09 02:14:48;;;;;;;;;;;;;;;3.06;95.35;99303.63;5026991;28;20012;-80
2021/12/09 02:17:13;;;;;;;;;;;;;;;3.14;94.25;99299.38;5032311;28;20376;-80
2021/12/09 02:19:43;;;;;;;;;;;;;;;3.23;93.76;99299.53;5020527;28;19917;-81
2021/12/09 02:22:09;;;;;;;;;;;;;;;3.23;94.33;99296.94;5024818;28;19925;-81
2021/12/09 02:24:34;;;;;;;;;;;;;;;3.24;94.68;99301.19;5027157;28;19921;-80
2021/12/09 02:27:00;;;;;;;;;;;;;;;3.27;94.51;99304.38;5024212;28;19933;-80
2021/12/09 02:29:25;;;;;;;;;;;;;;;3.30;94.75;99303.28;5024980;28;20485;-82
2021/12/09 02:31:56;;;;;;;;;;;;;;;3.24;95.31;99298.56;5019541;28;19921;-81
2021/12/09 02:34:21;;;;;;;;;;;;;;;3.19;95.32;99299.81;5027492;28;19922;-80
2021/12/09 02:36:46;;;;;;;;;;;;;;;3.19;95.06;99298.97;5026751;28;19936;-82
2021/12/09 02:39:13;;;;;;;;;;;;;;;3.26;94.05;99299.25;5025976;28;19924;-80
2021/12/09 02:41:39;;;;;;;;;;;;;;;3.14;94.27;99295.94;5032119;28;19945;-80
2021/12/09 02:44:07;;;;;;;;;;;;;;;3.04;94.34;99298.53;5021859;28;19922;-82
2021/12/09 02:46:36;;;;;;;;;;;;;;;2.83;95.17;99303.81;5017010;28;20309;-82
2021/12/09 02:49:02;;;;;;;;;;;;;;;2.66;95.06;99302.66;5019348;28;19974;-81
2021/12/09 02:51:27;;;;;;;;;;;;;;;2.64;94.87;99314.19;5024432;28;19921;-82
2021/12/09 02:53:52;;;;;;;;;;;;;;;2.61;95.29;99314.47;5027619;28;19925;-81
2021/12/09 02:56:19;;;;;;;;;;;;;;;2.54;95.34;99316.78;5024485;28;19928;-83
2021/12/09 02:58:44;;;;;;;;;;;;;;;2.53;94.93;99322.97;5035263;28;19957;-81
2021/12/09 03:01:14;;;;;;;;;;;;;;;2.48;95.31;99327.72;5022582;28;19956;-81
2021/12/09 03:03:49;;;;;;;;;;;;;;;2.41;95.04;99329.19;5016947;28;19922;-81
2021/12/09 03:06:15;;;;;;;;;;;;;;;2.25;94.53;99334.88;5014320;28;19967;-82
2021/12/09 03:08:42;;;;;;;;;;;;;;;2.18;95.44;99337.16;5018024;28;20229;-81
2021/12/09 03:11:09;;;;;;;;;;;;;;;2.15;95.55;99342.66;5020493;28;19983;-81
2021/12/09 03:13:34;;;;;;;;;;;;;;;2.06;95.37;99346.00;5020060;28;19927;-82
2021/12/09 03:16:00;;;;;;;;;;;;;;;2.02;95.30;99357.63;5015346;28;20012;-82
2021/12/09 03:18:26;;;;;;;;;;;;;;;1.94;95.22;99358.25;5034294;28;20423;-81
2021/12/09 03:20:51;;;;;;;;;;;;;;;1.82;95.17;99360.09;5029437;28;19921;-82
2021/12/09 03:23:16;;;;;;;;;;;;;;;1.76;95.69;99364.97;5021942;28;19921;-81
2021/12/09 03:25:42;;;;;;;;;;;;;;;1.72;95.38;99368.75;5014750;28;19928;-82
2021/12/09 03:28:07;;;;;;;;;;;;;;;1.74;94.45;99370.31;5014546;28;19925;-81
2021/12/09 03:30:33;;;;;;;;;;;;;;;1.75;93.83;99374.56;5021697;28;20016;-82
2021/12/09 03:32:58;;;;;;;;;;;;;;;1.75;95.59;99378.97;5014391;28;20378;-82
2021/12/09 03:35:23;;;;;;;;;;;;;;;1.73;95.21;99370.44;5019389;28;19928;-81
2021/12/09 03:37:49;;;;;;;;;;;;;;;1.77;94.13;99371.84;5023518;28;19928;-81
2021/12/09 03:40:14;;;;;;;;;;;;;;;1.77;94.06;99366.63;5036354;28;20329;-82
2021/12/09 03:42:40;;;;;;;;;;;;;;;1.74;95.26;99379.91;5037185;28;20275;-81
2021/12/09 03:45:06;;;;;;;;;;;;;;;1.74;94.59;99370.31;5029050;28;20233;-82
2021/12/09 03:47:31;;;;;;;;;;;;;;;1.67;96.09;99375.19;5022338;28;20310;-82
2021/12/09 03:49:57;;;;;;;;;;;;;;;1.62;95.94;99368.69;5024414;28;19965;-82
2021/12/09 03:52:22;;;;;;;;;;;;;;;1.50;95.95;99367.88;5023727;28;19921;-81
2021/12/09 03:54:47;;;;;;;;;;;;;;;1.45;96.68;99368.28;5018595;28;20030;-80
2021/12/09 03:57:13;;;;;;;;;;;;;;;1.48;94.83;99360.22;5019705;28;19949;-81
2021/12/09 03:59:39;;;;;;;;;;;;;;;1.41;94.96;99356.44;5013552;28;20014;-80
2021/12/09 04:02:04;;;;;;;;;;;;;;;1.37;94.69;99362.84;5019667;28;20320;-82
2021/12/09 04:04:30;;;;;;;;;;;;;;;1.35;94.23;99359.50;5023247;28;20416;-81
2021/12/09 04:06:55;;;;;;;;;;;;;;;1.35;94.38;99361.31;5021088;28;19957;-80
2021/12/09 04:09:22;;;;;;;;;;;;;;;1.27;94.59;99365.34;5023962;28;20394;-83
2021/12/09 04:11:48;;;;;;;;;;;;;;;1.24;94.57;99360.38;5022360;28;19917;-81
2021/12/09 04:14:13;;;;;;;;;;;;;;;1.19;95.02;99362.53;5022979;28;20020;-80
2021/12/09 04:16:39;;;;;;;;;;;;;;;1.18;97.18;99355.66;5024473;28;19925;-80
2021/12/09 04:19:05;;;;;;;;;;;;;;;1.14;97.45;99359.44;5025800;28;20347;-81
2021/12/09 04:21:30;;;;;;;;;;;;;;;1.12;97.50;99360.50;5024667;28;19928;-82
2021/12/09 04:23:56;;;;;;;;;;;;;;;0.99;95.71;99356.25;5013857;28;19921;-81
2021/12/09 04:26:21;;;;;;;;;;;;;;;0.76;95.51;99355.44;5028849;28;20009;-81
2021/12/09 04:28:46;;;;;;;;;;;;;;;0.67;96.19;99361.34;5017205;28;19926;-81
2021/12/09 04:31:11;;;;;;;;;;;;;;;0.63;96.74;99370.31;5025719;28;20359;-80
2021/12/09 04:33:37;;;;;;;;;;;;;;;0.61;97.12;99367.00;5014056;28;19969;-80
2021/12/09 04:36:02;;;;;;;;;;;;;;;0.68;98.60;99364.78;5021293;28;19921;-83
2021/12/09 04:38:28;;;;;;;;;;;;;;;0.68;97.58;99368.19;5018680;28;20374;-82
2021/12/09 04:40:53;;;;;;;;;;;;;;;0.69;97.48;99369.88;5021613;28;19960;-81
2021/12/09 04:43:18;;;;;;;;;;;;;;;0.84;96.16;99373.06;5022790;28;19928;-81
2021/12/09 04:45:43;;;;;;;;;;;;;;;0.90;96.08;99380.38;5017101;28;19929;-80
2021/12/09 04:48:09;;;;;;;;;;;;;;;1.02;95.74;99376.81;5029523;28;19921;-80
2021/12/09 04:50:35;;;;;;;;;;;;;;;1.13;95.60;99386.41;5014167;28;19963;-81
2021/12/09 04:53:01;;;;;;;;;;;;;;;1.19;95.40;99391.16;5015722;28;19937;-80
2021/12/09 04:55:26;;;;;;;;;;;;;;;1.25;95.51;99395.06;5022303;28;19921;-81
2021/12/09 04:57:51;;;;;;;;;;;;;;;1.25;96.49;99393.28;5037260;28;20398;-81
2021/12/09 05:00:19;;;;;;;;;;;;;;;1.30;97.54;99395.50;5016037;28;19967;-81
2021/12/09 05:05:21;;;;;;;;;;;;;;;1.43;97.30;99397.97;5021361;28;19974;-80
2021/12/09 05:07:48;;;;;;;;;;;;;;;1.47;97.55;99402.00;5031509;28;20360;-80
2021/12/09 05:10:13;;;;;;;;;;;;;;;1.52;97.67;99409.44;5013366;28;19922;-81
2021/12/09 05:12:38;;;;;;;;;;;;;;;1.58;97.64;99408.97;5020686;28;20355;-80
2021/12/09 05:15:04;;;;;;;;;;;;;;;1.59;97.16;99413.22;5019208;28;19931;-81
2021/12/09 05:17:29;;;;;;;;;;;;;;;1.64;97.17;99418.91;5025968;28;19928;-82
2021/12/09 05:19:54;;;;;;;;;;;;;;;1.63;97.56;99419.84;5028700;28;19952;-81
2021/12/09 05:22:19;;;;;;;;;;;;;;;1.63;97.76;99420.69;5019651;28;19921;-80
2021/12/09 05:24:48;;;;;;;;;;;;;;;1.64;97.77;99422.31;5023838;28;19952;-81
2021/12/09 05:27:14;;;;;;;;;;;;;;;1.65;97.81;99425.78;5024556;28;20441;-81
2021/12/09 05:29:42;;;;;;;;;;;;;;;1.78;96.71;99425.63;5018203;28;19925;-80
2021/12/09 05:32:08;;;;;;;;;;;;;;;1.79;96.54;99422.06;5017524;28;19925;-80
2021/12/09 05:34:38;;;;;;;;;;;;;;;1.69;97.38;99422.81;5013307;28;19929;-82
2021/12/09 05:37:05;;;;;;;;;;;;;;;1.66;97.59;99425.63;5014030;28;20416;-81
2021/12/09 05:39:31;;;;;;;;;;;;;;;1.69;97.92;99433.22;5024380;28;20393;-82
2021/12/09 05:41:56;;;;;;;;;;;;;;;1.85;96.53;99435.41;5026000;28;19921;-81
2021/12/09 05:44:21;;;;;;;;;;;;;;;1.92;96.17;99433.97;5020782;28;20386;-80
2021/12/09 05:46:47;;;;;;;;;;;;;;;1.96;96.34;99455.44;5038666;28;20016;-81
2021/12/09 05:49:13;;;;;;;;;;;;;;;2.08;95.64;99454.44;5018194;28;19922;-81
2021/12/09 05:51:39;;;;;;;;;;;;;;;2.09;95.50;99450.03;5015830;28;19928;-80
2021/12/09 05:54:04;;;;;;;;;;;;;;;2.08;95.70;99451.84;5031973;28;19921;-83
2021/12/09 05:56:30;;;;;;;;;;;;;;;2.13;95.75;99454.88;5017193;28;20408;-80
2021/12/09 05:58:55;;;;;;;;;;;;;;;2.14;96.16;99455.72;5016785;28;19925;-83
2021/12/09 06:01:22;;;;;;;;;;;;;;;2.18;96.21;99462.34;5026561;28;20022;-81
2021/12/09 06:03:47;;;;;;;;;;;;;;;2.31;95.66;99460.41;5045392;28;19917;-80
2021/12/09 06:06:12;;;;;;;;;;;;;;;2.38;95.71;99458.09;5012731;28;19936;-80
2021/12/09 06:08:39;;;;;;;;;;;;;;;2.40;95.53;99465.81;5022757;28;19926;-81
2021/12/09 06:11:05;;;;;;;;;;;;;;;2.38;96.08;99460.72;5023156;28;19925;-80
2021/12/09 06:13:32;;;;;;;;;;;;;;;2.44;95.59;99452.41;5021341;28;19975;-80
2021/12/09 06:15:57;;;;;;;;;;;;;;;2.49;95.53;99452.84;5021091;28;20446;-80
2021/12/09 06:18:23;;;;;;;;;;;;;;;2.53;95.45;99450.81;5024177;28;19968;-81
2021/12/09 06:20:48;;;;;;;;;;;;;;;2.54;95.32;99461.09;5023726;28;20143;-79
2021/12/09 06:23:13;;;;;;;;;;;;;;;2.46;96.02;99468.75;5020835;28;20336;-80
2021/12/09 06:25:38;;;;;;;;;;;;;;;2.34;97.01;99480.19;5022356;28;19924;-81
2021/12/09 06:28:04;;;;;;;;;;;;;;;2.34;96.74;99478.41;5025083;28;19931;-80
2021/12/09 06:30:29;;;;;;;;;;;;;;;2.42;96.36;99482.19;5027138;28;19925;-81
2021/12/09 06:32:54;;;;;;;;;;;;;;;2.44;96.39;99481.09;5029309;28;19989;-81
2021/12/09 06:35:20;;;;;;;;;;;;;;;2.60;95.25;99485.03;5023008;28;19929;-80
2021/12/09 06:37:47;;;;;;;;;;;;;;;2.66;94.89;99487.16;5025656;28;19952;-80
2021/12/09 06:40:15;;;;;;;;;;;;;;;2.70;94.42;99489.38;5023526;28;19983;-82
2021/12/09 06:42:41;;;;;;;;;;;;;;;2.66;94.69;99484.53;5023398;28;20008;-80
2021/12/09 06:45:06;;;;;;;;;;;;;;;2.65;94.47;99485.50;5023781;28;19940;-80
2021/12/09 06:47:31;;;;;;;;;;;;;;;2.73;94.18;99494.34;5024336;28;20433;-80
2021/12/09 06:49:57;;;;;;;;;;;;;;;2.71;94.08;99491.03;5017700;28;19926;-80
2021/12/09 06:52:22;;;;;;;;;;;;;;;2.66;94.09;99493.19;5038071;28;19940;-82
2021/12/09 06:54:47;;;;;;;;;;;;;;;2.70;93.86;99510.28;5025697;28;19985;-81
2021/12/09 06:57:12;;;;;;;;;;;;;;;2.73;93.71;99507.41;5020727;28;20011;-80
2021/12/09 06:59:38;;;;;;;;;;;;;;;2.67;93.86;99505.31;5020228;28;19922;-80
2021/12/09 07:02:03;;;;;;;;;;;;;;;2.66;93.61;99514.06;5025216;28;19921;-82
2021/12/09 07:04:28;;;;;;;;;;;;;;;2.72;93.44;99504.94;5014761;28;19922;-81
2021/12/09 07:06:53;;;;;;;;;;;;;;;2.69;93.46;99513.00;5022445;28;19937;-79
2021/12/09 07:09:19;;;;;;;;;;;;;;;2.59;93.75;99520.75;5036381;28;20012;-83
2021/12/09 07:11:48;;;;;;;;;;;;;;;2.59;93.91;99533.81;5018965;28;19922;-83
2021/12/09 07:14:13;;;;;;;;;;;;;;;2.62;94.08;99532.72;5024499;28;19928;-80
2021/12/09 07:16:38;;;;;;;;;;;;;;;2.64;93.79;99534.25;5026321;28;19921;-81
2021/12/09 07:19:04;;;;;;;;;;;;;;;2.69;93.33;99526.06;5025727;28;19944;-81
2021/12/09 07:21:29;;;;;;;;;;;;;;;2.66;93.14;99527.13;5019018;28;19930;-81
2021/12/09 07:23:54;;;;;;;;;;;;;;;2.64;93.35;99523.81;5024177;28;19972;-80
2021/12/09 07:26:19;;;;;;;;;;;;;;;2.61;93.70;99526.69;5020723;28;19929;-81
2021/12/09 07:28:45;;;;;;;;;;;;;;;2.57;94.12;99524.44;5027583;28;20378;-81
2021/12/09 07:31:10;;;;;;;;;;;;;;;2.64;93.88;99523.00;5025591;28;19928;-81
2021/12/09 07:33:35;;;;;;;;;;;;;;;2.65;93.76;99524.66;5026431;28;19944;-80
2021/12/09 07:36:00;;;;;;;;;;;;;;;2.73;93.49;99522.25;5042916;28;20360;-80
2021/12/09 07:38:26;;;;;;;;;;;;;;;2.70;93.29;99525.94;5019393;28;19921;-81
2021/12/09 07:40:51;;;;;;;;;;;;;;;2.69;93.04;99526.06;5018282;28;19925;-81
2021/12/09 07:43:16;;;;;;;;;;;;;;;2.70;92.97;99525.13;5014296;28;19976;-81
2021/12/09 07:45:41;;;;;;;;;;;;;;;2.67;93.04;99522.72;5015799;28;19922;-81
2021/12/09 07:48:07;;;;;;;;;;;;;;;2.66;92.90;99527.13;5014544;28;19933;-82
2021/12/09 07:50:33;;;;;;;;;;;;;;;2.60;92.61;99525.03;5023872;28;20027;-82
2021/12/09 07:52:59;;;;;;;;;;;;;;;2.64;92.94;99523.00;5022439;28;20038;-82
2021/12/09 07:55:25;;;;;;;;;;;;;;;2.61;92.70;99511.03;5018904;28;20392;-83
2021/12/09 07:57:51;;;;;;;;;;;;;;;2.64;92.74;99523.00;5017076;28;19928;-82
2021/12/09 08:00:18;;;;;;;;;;;;;;;2.55;92.95;99530.63;5019576;28;19917;-83
2021/12/09 08:02:44;;;;;;;;;;;;;;;2.43;93.00;99539.47;5039794;28;20020;-81
2021/12/09 08:05:10;;;;;;;;;;;;;;;2.41;93.10;99538.75;5025745;28;20460;-81
2021/12/09 08:07:37;;;;;;;;;;;;;;;2.41;93.31;99543.97;5018521;28;19930;-82
2021/12/09 08:10:03;;;;;;;;;;;;;;;2.44;93.35;99548.09;5023058;28;19918;-81
2021/12/09 08:12:29;;;;;;;;;;;;;;;2.44;93.47;99545.50;5015206;28;19945;-82
2021/12/09 08:14:54;;;;;;;;;;;;;;;2.54;93.54;99549.84;5020997;28;20060;-83
2021/12/09 08:20:05;;;;;;;;;;;;;;;2.54;93.69;99552.44;5010095;28;20128;-81
2021/12/09 08:22:30;;;;;;;;;;;;;;;2.56;93.47;99554.94;4996655;28;19926;-82
2021/12/09 08:24:56;;;;;;;;;;;;;;;2.67;93.53;99552.28;5001562;28;20448;-81
2021/12/09 08:27:21;;;;;;;;;;;;;;;2.71;94.04;99558.91;5006767;28;20477;-83
2021/12/09 08:29:47;;;;;;;;;;;;;;;2.81;93.79;99572.03;5001403;28;19929;-84
2021/12/09 08:32:12;;;;;;;;;;;;;;;2.88;93.39;99570.56;5002901;28;19929;-84
2021/12/09 08:34:37;;;;;;;;;;;;;;;3.01;92.66;99573.00;5009983;28;19942;-82
2021/12/09 08:37:02;;;;;;;;;;;;;;;3.04;92.57;99577.97;5006141;28;19925;-82
2021/12/09 08:39:28;;;;;;;;;;;;;;;3.09;92.15;99578.41;5014734;28;19921;-82
2021/12/09 08:41:53;;;;;;;;;;;;;;;3.09;91.79;99580.22;5012880;28;20378;-82
2021/12/09 08:44:18;;;;;;;;;;;;;;;3.12;91.93;99585.16;5018881;28;19921;-82
2021/12/09 08:46:43;;;;;;;;;;;;;;;3.24;91.97;99585.94;5012766;28;19931;-84
2021/12/09 08:49:09;;;;;;;;;;;;;;;3.28;91.40;99587.34;5032033;28;19929;-82
2021/12/09 08:51:34;;;;;;;;;;;;;;;3.27;90.99;99581.31;5013094;28;20445;-82
2021/12/09 08:53:59;;;;;;;;;;;;;;;3.23;91.27;99587.72;5017250;28;19917;-82
2021/12/09 08:56:25;;;;;;;;;;;;;;;3.24;91.26;99591.16;5006629;28;20397;-81
2021/12/09 08:58:51;;;;;;;;;;;;;;;3.24;91.39;99591.16;5016283;28;19982;-81
2021/12/09 09:01:16;;;;;;;;;;;;;;;3.24;91.45;99596.38;5002426;28;19936;-82
2021/12/09 09:03:41;;;;;;;;;;;;;;;3.31;91.48;99605.38;5018732;28;19944;-82
2021/12/09 09:06:07;;;;;;;;;;;;;;;3.42;91.14;99612.34;4998050;28;19922;-82
2021/12/09 09:08:32;;;;;;;;;;;;;;;3.41;91.05;99616.72;5012304;28;19972;-83
2021/12/09 09:10:57;;;;;;;;;;;;;;;3.33;90.77;99616.53;5011606;28;19988;-81
2021/12/09 09:13:23;;;;;;;;;;;;;;;3.42;91.27;99614.94;5009123;28;19929;-83
2021/12/09 09:15:49;;;;;;;;;;;;;;;3.43;91.29;99614.78;5002681;28;19971;-81
2021/12/09 09:18:15;;;;;;;;;;;;;;;3.47;91.06;99607.53;5002555;28;20338;-82
2021/12/09 09:20:40;;;;;;;;;;;;;;;3.51;90.91;99607.16;5002438;28;20028;-80
2021/12/09 09:23:10;;;;;;;;;;;;;;;3.52;90.56;99614.03;5000262;28;20405;-83
2021/12/09 09:25:35;;;;;;;;;;;;;;;3.54;90.42;99616.53;5014102;28;19975;-82
2021/12/09 09:28:01;;;;;;;;;;;;;;;3.51;90.71;99622.84;5018575;28;19925;-81
2021/12/09 09:30:34;;;;;;;;;;;;;;;3.53;90.35;99626.16;5013526;28;20077;-82
2021/12/09 09:33:00;;;;;;;;;;;;;;;3.51;90.56;99622.00;5015461;28;20406;-80
2021/12/09 09:35:25;;;;;;;;;;;;;;;3.61;90.10;99628.94;5006003;28;20067;-80
2021/12/09 09:37:50;;;;;;;;;;;;;;;3.59;89.80;99632.66;5021120;28;20019;-82
2021/12/09 09:40:17;;;;;;;;;;;;;;;3.58;90.21;99623.97;5016844;28;20003;-81
2021/12/09 09:45:09;;;;;;;;;;;;;;;3.65;89.93;99620.84;5008968;28;19947;-83
2021/12/09 09:47:34;;;;;;;;;;;;;;;3.64;90.08;99621.81;5008196;28;19925;-82
2021/12/09 09:49:59;;;;;;;;;;;;;;;3.73;90.49;99619.22;5012890;28;20346;-82
2021/12/09 09:52:25;;;;;;;;;;;;;;;3.77;89.59;99625.88;5003983;28;20302;-81
2021/12/09 09:54:52;;;;;;;;;;;;;;;3.87;89.70;99627.72;5013473;28;19922;-81
2021/12/09 09:57:18;;;;;;;;;;;;;;;3.88;89.23;99622.31;5014413;28;19988;-81
2021/12/09 09:59:43;;;;;;;;;;;;;;;3.86;88.81;99623.41;5014817;28;19930;-82
2021/12/09 10:02:09;;;;;;;;;;;;;;;3.84;88.60;99628.78;5013508;28;19932;-84
2021/12/09 10:04:45;;;;;;;;;;;;;;;3.82;89.25;99631.53;4999792;28;21048;-84
2021/12/09 10:07:11;;;;;;;;;;;;;;;3.86;89.09;99631.25;5023538;28;20579;-82
2021/12/09 10:09:37;;;;;;;;;;;;;;;3.85;88.54;99642.69;5015154;28;19953;-83
2021/12/09 10:12:03;;;;;;;;;;;;;;;3.89;88.55;99636.25;5012875;28;19922;-82
2021/12/09 10:14:29;;;;;;;;;;;;;;;3.85;88.66;99634.84;5015670;28;19930;-82
2021/12/09 10:17:04;;;;;;;;;;;;;;;3.94;88.24;99642.72;5019817;28;19932;-83
2021/12/09 10:19:29;;;;;;;;;;;;;;;3.85;88.17;99635.66;5012847;28;19961;-82
2021/12/09 10:22:03;;;;;;;;;;;;;;;3.86;88.87;99646.94;5020341;28;20003;-83
2021/12/09 10:24:30;;;;;;;;;;;;;;;3.94;87.97;99636.69;5013116;28;19921;-82
2021/12/09 10:26:56;;;;;;;;;;;;;;;3.90;88.30;99633.50;5014659;28;20397;-83
2021/12/09 10:29:33;;;;;;;;;;;;;;;3.88;88.40;99629.34;5017013;28;19929;-82
2021/12/09 10:32:01;;;;;;;;;;;;;;;3.90;87.90;99633.50;5026029;28;19943;-82
2021/12/09 10:37:11;;;;;;;;;;;;;;;3.92;87.88;99625.53;5021365;28;19937;-82
2021/12/09 10:39:41;;;;;;;;;;;;;;;3.98;87.67;99627.59;5016092;28;19928;-82
2021/12/09 10:42:10;;;;;;;;;;;;;;;3.95;87.54;99628.69;5028638;28;19959;-81
2021/12/09 10:44:49;;;;;;;;;;;;;;;3.95;87.77;99627.88;5018628;28;19929;-82
2021/12/09 10:47:23;;;;;;;;;;;;;;;3.91;87.53;99626.47;5007904;28;19933;-82
2021/12/09 10:50:16;;;;;;;;;;;;;;;3.86;87.30;99620.81;5015946;28;20004;-81
2021/12/09 10:52:44;;;;;;;;;;;;;;;3.93;87.72;99619.31;5015031;28;20378;-81
2021/12/09 10:55:09;;;;;;;;;;;;;;;3.92;87.31;99622.91;5016504;28;19931;-83
2021/12/09 10:57:35;;;;;;;;;;;;;;;3.93;88.00;99620.16;5025702;28;20104;-81
2021/12/09 11:00:14;;;;;;;;;;;;;;;3.98;87.70;99617.97;5023944;28;19921;-82
2021/12/09 11:02:56;;;;;;;;;;;;;;;3.95;87.63;99615.59;5023034;28;19928;-83
2021/12/09 11:05:21;;;;;;;;;;;;;;;3.99;87.44;99608.34;5021081;28;19953;-83
2021/12/09 11:07:46;;;;;;;;;;;;;;;4.03;87.18;99612.34;5018841;28;19929;-84
2021/12/09 11:10:14;;;;;;;;;;;;;;;4.03;87.28;99613.19;5016481;28;19971;-83
2021/12/09 11:12:47;;;;;;;;;;;;;;;4.05;87.16;99615.66;5002363;28;19926;-82
2021/12/09 11:15:12;;;;;;;;;;;;;;;3.98;87.46;99611.91;5001405;28;20000;-82
2021/12/09 11:17:41;;;;;;;;;;;;;;;4.08;87.39;99611.97;5010542;28;19921;-82
2021/12/09 11:20:07;;;;;;;;;;;;;;;4.10;87.16;99613.47;5016764;28;19945;-81
2021/12/09 11:22:35;;;;;;;;;;;;;;;4.03;86.97;99614.97;5016283;28;19986;-83
2021/12/09 11:25:03;;;;;;;;;;;;;;;4.06;87.13;99616.50;5021549;28;19927;-82
2021/12/09 11:27:30;;;;;;;;;;;;;;;4.12;87.12;99619.38;5011478;28;19941;-82
2021/12/09 11:30:07;;;;;;;;;;;;;;;4.18;86.78;99616.25;5030079;28;20011;-81
2021/12/09 11:35:15;;;;;;;;;;;;;;;4.20;87.05;99611.72;5021157;28;19921;-81
2021/12/09 11:37:46;;;;;;;;;;;;;;;4.19;86.59;99617.06;5016440;28;19927;-82
2021/12/09 11:40:19;;;;;;;;;;;;;;;4.28;86.54;99611.03;5020956;28;19960;-82
2021/12/09 11:42:53;;;;;;;;;;;;;;;4.32;85.95;99603.75;5034535;28;19942;-82
2021/12/09 11:45:20;;;;;;;;;;;;;;;4.30;86.55;99603.06;5021598;28;19928;-80
2021/12/09 11:47:48;;;;;;;;;;;;;;;4.28;86.83;99597.13;5035777;28;20040;-82
2021/12/09 11:50:15;;;;;;;;;;;;;;;4.41;86.56;99601.16;5024222;28;19926;-81
2021/12/09 11:52:45;;;;;;;;;;;;;;;4.53;86.70;99601.88;5034501;28;20417;-82
2021/12/09 11:55:13;;;;;;;;;;;;;;;4.62;86.40;99605.44;5017231;28;19934;-81
2021/12/09 11:57:46;;;;;;;;;;;;;;;4.64;85.63;99600.91;5016085;28;20116;-81
2021/12/09 12:12:19;;;;;;;;;;;;;;;4.57;83.69;99594.56;5025188;28;19928;-80
2021/12/09 12:14:48;;;;;;;;;;;;;;;4.56;84.30;99593.75;5027307;28;19931;-81
2021/12/09 12:25:33;;;;;;;;;;;;;;;4.46;83.71;99606.00;5027727;28;19922;-81
2021/12/09 12:28:18;;;;;;;;;;;;;;;4.46;84.08;99598.16;5024654;28;19948;-80
2021/12/09 12:34:33;;;;;;;;;;;;;;;4.40;83.87;99596.88;5017552;28;19921;-83
2021/12/09 12:39:46;;;;;;;;;;;;;;;4.43;83.91;99598.38;5019548;28;20099;-80
2021/12/09 12:42:19;;;;;;;;;;;;;;;4.35;84.12;99583.38;5025407;28;19921;-81
2021/12/09 12:45:03;;;;;;;;;;;;;;;4.40;84.13;99583.78;5017953;28;20385;-81
2021/12/09 12:47:36;;;;;;;;;;;;;;;4.45;83.99;99583.38;5014618;28;19936;-81
2021/12/09 12:50:11;;;;;;;;;;;;;;;4.38;84.50;99574.41;5013844;28;20374;-80
2021/12/09 12:52:38;;;;;;;;;;;;;;;4.46;84.47;99564.94;5023032;28;19921;-80
2021/12/09 12:55:20;;;;;;;;;;;;;;;4.51;84.06;99572.38;5021034;28;19925;-81
2021/12/09 12:57:48;;;;;;;;;;;;;;;4.57;84.25;99566.59;5020263;28;20291;-82
2021/12/09 13:00:17;;;;;;;;;;;;;;;4.63;84.29;99562.59;5017909;28;19980;-81
2021/12/09 13:05:32;;;;;;;;;;;;;;;4.81;83.31;99558.31;5011137;28;19968;-83
2021/12/09 13:13:13;;;;;;;;;;;;;;;4.83;82.90;99552.94;5021324;28;19925;-82
2021/12/09 13:15:59;;;;;;;;;;;;;;;4.72;83.12;99545.22;5022564;28;20326;-80
2021/12/09 13:18:42;;;;;;;;;;;;;;;4.75;83.15;99551.03;4993610;28;20420;-82
2021/12/09 13:21:26;;;;;;;;;;;;;;;4.75;82.44;99552.81;5014819;28;19928;-80
2021/12/09 13:24:10;;;;;;;;;;;;;;;4.72;82.47;99553.94;5018202;28;20025;-82
2021/12/09 13:26:55;;;;;;;;;;;;;;;4.73;82.67;99552.13;5016902;28;19926;-80
2021/12/09 13:29:33;;;;;;;;;;;;;;;4.73;82.64;99549.50;5020261;28;19921;-82
2021/12/09 13:32:14;;;;;;;;;;;;;;;4.72;82.37;99555.69;5015280;28;19948;-82
2021/12/09 13:34:51;;;;;;;;;;;;;;;4.69;82.32;99548.94;5015214;28;20390;-81
2021/12/09 13:47:51;;;;;;;;;;;;;;;4.76;81.99;99554.47;5023296;28;19987;-82
2021/12/09 13:50:43;;;;;;;;;;;;;;;4.71;81.86;99554.88;5041412;28;19929;-81
2021/12/09 13:55:31;;;;;;;;;;;;;;;4.74;82.39;99551.97;5027484;28;19921;-83
2021/12/09 13:57:59;;;;;;;;;;;;;;;4.73;82.94;99544.28;5023704;28;19925;-82